Aérodrome :
LOGIN :

S'inscrire | Disclaimer

   EN    FR    IT 

 










Légende :    VFR   VFR Marginal   IFR   IFR Intensif   IFR Très Intensif
Visi : 
Plafond : 
>= 8 km
>= 3000ft
5 à 8 km
1000 à 3000 ft
1500m à 5 km
500 à 1000 ft
800 à 1500m
200 à 500 ft
< 800m
< 200 ft
Symboles :   Orages  Brouillard  Fortes neiges  Fortes précipitations  Vent > 20 kt
SIGMETs :   Divers  Orages  Givrage  Turbulence  Onde Orograph.  Cendres Volcan.







- Altitude de l'aérodrome : 495 ft
- Code IATA : BUD


LHBP - Budapest Ferihegy

DERNIER METAR :
  • 201500Z 22011KT 160V240 9999 FEW040CB FEW050 21/12 Q1005 NOSIG

METARs EXPIRÉS :
  • 201430Z 22014KT 9999 VCSH FEW040CB FEW046 SCT250 20/13 Q1005 NOSIG
  • 201400Z 19013KT 160V220 9999 VCTS FEW035CB SCT045 21/12 Q1005 TEMPO 22015G25KT 5000 TSRA
  • 201330Z 16010KT 120V190 9999 VCSH FEW035CB SCT045 SCT090 21/14 Q1005 NOSIG
  • 201300Z 19011KT 150V210 9999 VCSH FEW040TCU SCT045 SCT080 21/15 Q1005 NOSIG
  • 201230Z 18012KT 150V220 9999 SCT037TCU SCT043 21/14 Q1005 TEMPO SHRA

TAF TAF LHBP
Valide du 20 à 12h jusqu'au 21 à 12h UTC


201115Z 2012/2112 16008KT CAVOK
TEMPO 2012/2017 VRB20G40KT 4000 TSRA SCT025CB BKN050
BECMG 2107/2109 21012KT
TEMPO 2107/2112 SCT035
Pas de NOTAMs connus pour ce terrain.
1 SIGMET publié pour la FIR Budapest (LHCC) :
 
Orages fréquents avec grêle
LHCC SIGMET 02 VALID 201500/201630 LHBP
LHCC BUDAPEST FIR FRQ TSGR FCST WI N4805 E01855 - N4815 E01935 - N4815 E02010 - N4725 E02200 - N4655 E02040 - N4615 E02000 - N4805 E01855 TOP FL330 MOV NNE NC=



MET'MAP, la Météo Aéronautique d'un coup d'oeil ! - Copyright ORBIFLY Décembre 2007 - Disclaimer

ORBIFLY MET'MAP TEAM :

Programmation & Développement : Alexandra Zaïnal
Conception & Développement : Baudouin d'Aumeries
Co-Programmation & Développement : Marc-Olivier Méhu
Soutien technique & logistique : Manuel Goepfert

Contact : metmap@orbifly.com




SOURCES & CREDITS :

   NOAA